createdAt,value
2023-05-20T00:04:14.128Z,89.30
2023-05-20T00:09:22.512Z,88.61
2023-05-20T00:14:29.126Z,88.29
2023-05-20T00:19:36.301Z,87.93
2023-05-20T00:24:44.436Z,86.82
2023-05-20T00:29:51.197Z,87.09
2023-05-20T00:35:01.299Z,86.67
2023-05-20T00:40:15.600Z,87.49
2023-05-20T00:45:22.530Z,87.71
2023-05-20T00:50:29.245Z,86.67
2023-05-20T00:55:37.903Z,87.07
2023-05-20T01:00:45.616Z,86.61
2023-05-20T01:05:52.265Z,86.84
2023-05-20T01:11:07.977Z,87.17
2023-05-20T01:16:16.736Z,86.27
2023-05-20T01:21:25.123Z,86.20
2023-05-20T01:26:33.756Z,85.67
2023-05-20T01:31:41.573Z,85.20
2023-05-20T01:36:48.516Z,85.51
2023-05-20T01:41:57.380Z,85.38
2023-05-20T01:47:03.698Z,85.10
2023-05-20T01:52:10.329Z,84.88
2023-05-20T01:57:18.728Z,85.05
2023-05-20T02:02:25.650Z,84.95
2023-05-20T02:07:32.649Z,84.61
2023-05-20T02:12:40.872Z,84.59
2023-05-20T02:17:48.705Z,84.89
2023-05-20T02:22:55.132Z,84.48
2023-05-20T02:28:06.194Z,84.89
2023-05-20T02:33:12.964Z,84.55
2023-05-20T02:38:19.413Z,84.54
2023-05-20T02:43:27.299Z,84.05
2023-05-20T02:48:33.805Z,83.84
2023-05-20T02:53:40.207Z,83.55
2023-05-20T02:58:50.540Z,83.39
2023-05-20T03:03:57.237Z,83.07
2023-05-20T03:09:03.755Z,83.77
2023-05-20T03:14:11.834Z,83.83
2023-05-20T03:19:18.125Z,83.31
2023-05-20T03:24:24.993Z,83.20
2023-05-20T03:29:33.804Z,82.92
2023-05-20T03:34:40.623Z,82.78
2023-05-20T03:39:47.134Z,82.68
2023-05-20T03:44:55.651Z,81.95
2023-05-20T03:50:02.247Z,82.67
2023-05-20T03:55:11.063Z,82.98
2023-05-20T04:00:19.734Z,83.27
2023-05-20T04:05:28.385Z,83.05
2023-05-20T04:10:36.023Z,83.09
2023-05-20T04:15:44.710Z,83.47
2023-05-20T04:20:51.683Z,83.49
2023-05-20T04:26:02.817Z,83.30
2023-05-20T04:31:12.944Z,83.61
2023-05-20T04:36:19.572Z,83.19
2023-05-20T04:41:29.208Z,82.51
2023-05-20T04:47:25.977Z,82.98
2023-05-20T05:00:25.045Z,81.93
2023-05-20T05:06:12.066Z,81.79
2023-05-20T05:11:42.199Z,81.44
2023-05-20T05:16:48.722Z,81.65
2023-05-20T05:21:56.866Z,81.81
2023-05-20T05:27:03.342Z,81.57
2023-05-20T05:32:10.489Z,81.27
2023-05-20T05:37:18.646Z,80.58
2023-05-20T05:42:26.061Z,79.89
2023-05-20T05:47:33.813Z,79.02
2023-05-20T05:52:41.963Z,79.59
2023-05-20T05:57:49.133Z,78.88
2023-05-20T06:02:56.556Z,79.03
2023-05-20T06:08:17.591Z,80.28
2023-05-20T06:13:24.832Z,79.01
2023-05-20T06:18:31.456Z,79.34
2023-05-20T06:23:44.611Z,78.41
2023-05-20T06:28:53.663Z,78.33
2023-05-20T06:34:00.386Z,78.30
2023-05-20T06:39:12.784Z,77.69
2023-05-20T06:44:22.699Z,78.34
2023-05-20T06:49:39.257Z,78.82
2023-05-20T06:54:47.335Z,77.52
2023-05-20T06:59:53.852Z,76.97
2023-05-20T07:05:01.468Z,75.52
2023-05-20T07:10:12.730Z,77.11
2023-05-20T07:15:19.941Z,76.82
2023-05-20T07:20:26.468Z,76.16
2023-05-20T07:25:34.894Z,77.63
2023-05-20T07:30:41.720Z,77.48
2023-05-20T07:35:57.511Z,77.45
2023-05-20T07:41:05.818Z,77.04
2023-05-20T07:46:13.346Z,77.06
2023-05-20T07:51:20.455Z,76.42
2023-05-20T07:56:28.739Z,75.49
2023-05-20T08:01:36.976Z,74.42
2023-05-20T08:06:46.359Z,75.99
2023-05-20T08:12:01.791Z,74.96
2023-05-20T08:17:08.824Z,74.57
2023-05-20T08:22:15.688Z,74.70
2023-05-20T08:27:24.280Z,74.46
2023-05-20T08:32:31.097Z,74.61
2023-05-20T08:37:37.811Z,76.22
2023-05-20T08:42:46.912Z,76.67
2023-05-20T08:47:55.298Z,74.41
2023-05-20T08:53:02.239Z,73.58
2023-05-20T08:58:10.740Z,71.92
2023-05-20T09:03:17.468Z,72.93
2023-05-20T09:08:27.887Z,73.61
2023-05-20T09:13:35.706Z,74.13
2023-05-20T09:18:43.834Z,73.63
2023-05-20T09:23:50.923Z,73.06
2023-05-20T09:29:00.422Z,71.99
2023-05-20T09:34:09.321Z,72.75
2023-05-20T09:39:18.756Z,71.17
2023-05-20T09:44:26.783Z,68.26
2023-05-20T09:49:34.252Z,68.32
2023-05-20T09:54:41.482Z,68.44
2023-05-20T09:59:49.766Z,66.85
2023-05-20T10:04:59.921Z,67.64
2023-05-20T10:10:19.902Z,67.06
2023-05-20T10:15:36.585Z,67.19
2023-05-20T10:20:50.417Z,66.32
2023-05-20T10:25:59.154Z,65.37
2023-05-20T10:31:17.723Z,65.32
2023-05-20T10:36:32.557Z,64.76
2023-05-20T10:41:39.127Z,64.95
2023-05-20T10:47:00.244Z,65.42
2023-05-20T10:52:14.865Z,63.56
2023-05-20T10:57:21.719Z,62.05
2023-05-20T11:02:30.434Z,61.31
2023-05-20T11:07:36.821Z,62.05
2023-05-20T11:12:43.458Z,62.44
2023-05-20T11:18:01.871Z,61.90
2023-05-20T11:23:13.225Z,62.99
2023-05-20T11:28:21.693Z,61.81
2023-05-20T11:33:29.337Z,59.35
2023-05-20T11:38:35.852Z,59.66
2023-05-20T11:43:43.371Z,59.64
2023-05-20T11:48:57.334Z,58.21
2023-05-20T11:54:05.411Z,59.45
2023-05-20T11:59:12.912Z,58.28
2023-05-20T12:04:21.536Z,58.77
2023-05-20T12:09:28.136Z,57.76
2023-05-20T12:14:34.631Z,57.06
2023-05-20T12:19:42.769Z,57.30
2023-05-20T12:24:49.412Z,57.61
2023-05-20T12:29:56.218Z,57.35
2023-05-20T12:35:04.412Z,57.02
2023-05-20T12:40:14.318Z,56.48
2023-05-20T12:45:21.029Z,55.99
2023-05-20T12:50:29.480Z,55.70
2023-05-20T12:55:36.117Z,55.94
2023-05-20T13:00:42.870Z,55.50
2023-05-20T13:05:51.059Z,53.47
2023-05-20T13:10:57.784Z,54.22
2023-05-20T13:16:04.951Z,54.81
2023-05-20T13:21:14.128Z,53.97
2023-05-20T13:26:21.444Z,54.56
2023-05-20T13:31:28.193Z,53.04
2023-05-20T13:36:36.783Z,53.42
2023-05-20T13:41:43.232Z,54.03
2023-05-20T13:46:50.158Z,54.53
2023-05-20T13:51:58.292Z,54.89
2023-05-20T13:57:08.265Z,54.98
2023-05-20T14:02:14.982Z,55.08
2023-05-20T14:07:23.292Z,56.09
2023-05-20T14:12:30.104Z,56.36
2023-05-20T14:17:36.754Z,56.89
2023-05-20T14:22:45.061Z,56.75
2023-05-20T14:27:52.148Z,56.93
2023-05-20T14:32:58.763Z,57.98
2023-05-20T14:38:07.250Z,58.40
2023-05-20T14:43:13.661Z,58.47
2023-05-20T14:48:21.202Z,58.87
2023-05-20T14:53:29.257Z,59.20
2023-05-20T14:58:36.724Z,59.53
2023-05-20T15:03:43.593Z,59.89
2023-05-20T15:08:52.179Z,60.28
2023-05-20T15:13:59.317Z,59.67
2023-05-20T15:19:05.954Z,60.05
2023-05-20T15:24:14.148Z,60.33
2023-05-20T15:29:20.734Z,59.65
2023-05-20T15:34:27.575Z,60.39
2023-05-20T15:39:38.564Z,61.75
2023-05-20T15:44:45.062Z,61.02
2023-05-20T15:49:51.535Z,61.05
2023-05-20T15:54:59.822Z,60.95
2023-05-20T16:00:10.667Z,60.95
2023-05-20T16:05:18.146Z,61.63
2023-05-20T16:10:27.900Z,61.55
2023-05-20T16:15:36.845Z,61.76
2023-05-20T16:20:43.672Z,62.57
2023-05-20T16:25:52.347Z,63.44
2023-05-20T16:30:59.708Z,62.73
2023-05-20T16:36:07.054Z,62.55
2023-05-20T16:41:18.351Z,62.70
2023-05-20T16:46:26.056Z,62.89
2023-05-20T16:51:32.992Z,62.71
2023-05-20T16:56:41.632Z,63.56
2023-05-20T17:01:48.950Z,63.85
2023-05-20T17:06:57.395Z,64.84
2023-05-20T17:12:05.645Z,64.49
2023-05-20T17:17:14.307Z,64.58
2023-05-20T17:22:21.721Z,64.70
2023-05-20T17:27:30.080Z,65.57
2023-05-20T17:32:36.836Z,67.01
2023-05-20T17:37:43.559Z,68.08
2023-05-20T17:42:51.983Z,68.64
2023-05-20T17:47:59.039Z,68.05
2023-05-20T17:53:05.678Z,67.85
2023-05-20T17:58:14.351Z,67.10
2023-05-20T18:03:23.337Z,67.02
2023-05-20T18:08:30.714Z,66.31
2023-05-20T18:13:39.023Z,66.57
2023-05-20T18:18:46.404Z,66.95
2023-05-20T18:23:53.703Z,67.00
2023-05-20T18:29:02.501Z,67.41
2023-05-20T18:34:09.596Z,67.24
2023-05-20T18:39:20.847Z,68.94
2023-05-20T18:44:29.536Z,71.01
2023-05-20T18:49:36.250Z,71.61
2023-05-20T18:54:42.886Z,71.75
2023-05-20T18:59:51.225Z,71.32
2023-05-20T19:04:58.824Z,72.35
2023-05-20T19:10:06.834Z,72.36
2023-05-20T19:15:16.247Z,72.59
2023-05-20T19:20:23.436Z,74.00
2023-05-20T19:25:30.141Z,74.31
2023-05-20T19:30:38.336Z,74.00
2023-05-20T19:35:45.455Z,73.59
2023-05-20T19:40:53.230Z,73.68
2023-05-20T19:46:01.944Z,74.23
2023-05-20T19:51:08.584Z,74.96
2023-05-20T19:56:19.683Z,74.13
2023-05-20T20:01:28.841Z,74.06
2023-05-20T20:06:36.440Z,74.71
2023-05-20T20:11:44.994Z,74.81
2023-05-20T20:16:55.702Z,75.08
2023-05-20T20:22:03.229Z,75.43
2023-05-20T20:27:10.940Z,77.39
2023-05-20T20:32:19.582Z,78.48
2023-05-20T20:37:27.452Z,79.15
2023-05-20T20:42:35.211Z,78.41
2023-05-20T20:47:45.403Z,79.13
2023-05-20T20:52:52.450Z,78.95
2023-05-20T20:58:03.117Z,78.83
2023-05-20T21:03:12.409Z,79.73
2023-05-20T21:08:22.413Z,79.79
2023-05-20T21:13:29.655Z,79.16
2023-05-20T21:18:38.208Z,79.14
2023-05-20T21:23:45.469Z,79.42
2023-05-20T21:28:52.645Z,80.31
2023-05-20T21:34:01.053Z,81.34
2023-05-20T21:39:07.956Z,81.36
2023-05-20T21:44:15.093Z,80.82
2023-05-20T21:49:23.389Z,80.78
2023-05-20T21:54:30.213Z,80.91
2023-05-20T21:59:36.918Z,80.72
2023-05-20T22:04:45.038Z,81.37
2023-05-20T22:09:52.101Z,82.03
2023-05-20T22:14:59.315Z,81.85
2023-05-20T22:20:10.884Z,82.15
2023-05-20T22:25:18.115Z,81.75
2023-05-20T22:30:25.052Z,82.06
2023-05-20T22:35:33.471Z,82.43
2023-05-20T22:40:40.811Z,83.00
2023-05-20T22:45:47.561Z,84.12
2023-05-20T22:50:56.401Z,84.86
2023-05-20T22:56:02.780Z,84.76
2023-05-20T23:01:10.754Z,86.10
2023-05-20T23:06:19.239Z,85.03
2023-05-20T23:11:26.828Z,84.34
2023-05-20T23:16:34.580Z,84.18
2023-05-20T23:21:43.228Z,84.54
2023-05-20T23:26:49.701Z,86.02
2023-05-20T23:31:56.146Z,85.46
2023-05-20T23:37:03.987Z,85.23
2023-05-20T23:42:10.420Z,84.90
2023-05-20T23:47:19.033Z,85.36
2023-05-20T23:52:28.513Z,83.99
2023-05-20T23:57:34.988Z,83.49
